createdAt,value
2023-02-25T00:00:37.358Z,13.30
2023-02-25T00:03:19.921Z,14.30
2023-02-25T00:05:50.991Z,16.80
2023-02-25T00:08:22.092Z,16.00
2023-02-25T00:10:59.253Z,15.50
2023-02-25T00:13:30.667Z,12.50
2023-02-25T00:16:03.759Z,14.90
2023-02-25T00:18:35.042Z,14.60
2023-02-25T00:21:07.815Z,12.20
2023-02-25T00:23:38.766Z,14.70
2023-02-25T00:26:10.048Z,15.70
2023-02-25T00:28:41.672Z,14.10
2023-02-25T00:31:14.340Z,24.50
2023-02-25T00:33:45.944Z,13.20
2023-02-25T00:36:20.561Z,12.40
2023-02-25T00:38:52.206Z,13.20
2023-02-25T00:41:24.248Z,14.70
2023-02-25T00:43:55.827Z,15.40
2023-02-25T00:46:27.260Z,10.30
2023-02-25T00:48:58.954Z,13.80
2023-02-25T00:51:31.418Z,10.50
2023-02-25T00:54:02.453Z,11.10
2023-02-25T00:56:33.562Z,15.30
2023-02-25T00:59:04.741Z,13.50
2023-02-25T01:01:38.755Z,12.50
2023-02-25T01:04:10.372Z,9.90
2023-02-25T01:06:42.213Z,12.60
2023-02-25T01:09:15.614Z,14.30
2023-02-25T01:11:47.684Z,14.20
2023-02-25T01:14:20.261Z,13.40
2023-02-25T01:16:52.122Z,14.80
2023-02-25T01:19:25.258Z,12.60
2023-02-25T01:21:57.087Z,10.50
2023-02-25T01:24:29.352Z,12.40
2023-02-25T01:27:00.813Z,11.50
2023-02-25T01:29:32.337Z,15.80
2023-02-25T01:32:04.066Z,12.40
2023-02-25T01:34:35.337Z,15.70
2023-02-25T01:37:07.041Z,12.90
2023-02-25T01:39:40.593Z,17.50
2023-02-25T01:42:15.337Z,15.60
2023-02-25T01:45:05.736Z,12.20
2023-02-25T01:47:38.138Z,15.60
2023-02-25T01:50:10.314Z,17.40
2023-02-25T01:52:42.853Z,12.50
2023-02-25T01:55:14.336Z,15.10
2023-02-25T01:57:45.626Z,13.50
2023-02-25T02:00:17.803Z,17.00
2023-02-25T02:02:50.585Z,19.90
2023-02-25T02:05:22.543Z,18.80
2023-02-25T02:07:53.593Z,15.90
2023-02-25T02:10:24.420Z,12.80
2023-02-25T02:12:57.815Z,16.50
2023-02-25T02:15:29.265Z,17.00
2023-02-25T02:18:02.298Z,14.90
2023-02-25T02:20:39.753Z,17.40
2023-02-25T02:23:22.495Z,14.70
2023-02-25T02:26:06.099Z,14.40
2023-02-25T02:29:04.430Z,12.60
2023-02-25T02:31:55.000Z,13.80
2023-02-25T02:34:31.890Z,14.60
2023-02-25T02:37:07.298Z,15.40
2023-02-25T02:39:46.264Z,13.80
2023-02-25T02:42:22.368Z,14.20
2023-02-25T02:44:57.305Z,14.90
2023-02-25T02:47:29.987Z,15.80
2023-02-25T02:50:07.594Z,15.40
2023-02-25T02:52:40.557Z,14.70
2023-02-25T02:55:22.639Z,13.00
2023-02-25T02:57:57.128Z,14.40
2023-02-25T03:00:29.921Z,17.80
2023-02-25T03:03:03.906Z,19.70
2023-02-25T03:05:36.478Z,14.30
2023-02-25T03:08:08.745Z,15.70
2023-02-25T03:10:40.266Z,17.70
2023-02-25T03:13:10.832Z,14.90
2023-02-25T03:15:43.308Z,14.50
2023-02-25T03:18:19.424Z,14.80
2023-02-25T03:20:51.930Z,15.00
2023-02-25T03:23:25.265Z,19.20
2023-02-25T03:26:02.162Z,16.70
2023-02-25T03:28:34.152Z,16.60
2023-02-25T03:31:07.793Z,16.90
2023-02-25T03:33:41.499Z,15.10
2023-02-25T03:36:14.827Z,15.80
2023-02-25T03:38:47.983Z,15.20
2023-02-25T03:41:20.002Z,14.20
2023-02-25T03:43:54.519Z,15.90
2023-02-25T03:46:26.910Z,15.00
2023-02-25T03:48:57.821Z,17.10
2023-02-25T03:51:30.918Z,18.50
2023-02-25T03:54:02.782Z,15.70
2023-02-25T03:56:43.796Z,16.20
2023-02-25T03:59:15.605Z,17.30
2023-02-25T04:01:48.501Z,17.60
2023-02-25T04:04:19.059Z,15.80
2023-02-25T04:06:50.502Z,16.70
2023-02-25T04:09:21.397Z,17.30
2023-02-25T04:11:57.462Z,17.60
2023-02-25T04:14:28.135Z,17.50
2023-02-25T04:16:59.433Z,14.20
2023-02-25T04:19:30.779Z,15.50
2023-02-25T04:22:02.340Z,16.10
2023-02-25T04:24:33.378Z,16.90
2023-02-25T04:27:04.670Z,17.90
2023-02-25T04:29:35.268Z,18.30
2023-02-25T04:32:06.549Z,16.90
2023-02-25T04:34:37.336Z,15.10
2023-02-25T04:37:09.604Z,15.10
2023-02-25T04:39:40.441Z,18.40
2023-02-25T04:42:11.580Z,13.70
2023-02-25T04:44:43.438Z,18.50
2023-02-25T04:47:14.480Z,16.40
2023-02-25T04:49:46.153Z,17.40
2023-02-25T04:52:17.466Z,19.80
2023-02-25T04:54:48.316Z,17.70
2023-02-25T04:57:19.361Z,15.30
2023-02-25T04:59:50.809Z,17.20
2023-02-25T05:02:21.719Z,15.30
2023-02-25T05:04:52.377Z,17.50
2023-02-25T05:07:23.537Z,17.60
2023-02-25T05:09:54.316Z,11.70
2023-02-25T05:12:25.436Z,9.80
2023-02-25T05:14:56.133Z,9.10
2023-02-25T05:17:27.076Z,11.30
2023-02-25T05:19:59.143Z,8.90
2023-02-25T05:22:30.213Z,10.10
2023-02-25T05:25:00.905Z,8.70
2023-02-25T05:27:31.953Z,8.50
2023-02-25T05:30:02.798Z,10.30
2023-02-25T05:32:34.323Z,10.10
2023-02-25T05:35:05.616Z,9.90
2023-02-25T05:37:37.022Z,8.90
2023-02-25T05:40:09.761Z,10.00
2023-02-25T05:42:40.955Z,9.60
2023-02-25T05:45:12.780Z,10.70
2023-02-25T05:47:43.992Z,10.70
2023-02-25T05:50:15.271Z,11.90
2023-02-25T05:52:47.262Z,10.30
2023-02-25T05:55:18.237Z,10.90
2023-02-25T05:57:49.556Z,11.30
2023-02-25T06:00:21.760Z,11.30
2023-02-25T06:02:52.773Z,11.20
2023-02-25T06:05:23.489Z,13.40
2023-02-25T06:07:54.543Z,11.90
2023-02-25T06:10:25.707Z,10.80
2023-02-25T06:12:56.863Z,15.10
2023-02-25T06:15:27.551Z,12.80
2023-02-25T06:17:58.865Z,13.40
2023-02-25T06:20:29.782Z,12.70
2023-02-25T06:23:00.899Z,12.90
2023-02-25T06:25:31.727Z,20.00
2023-02-25T06:28:03.567Z,13.80
2023-02-25T06:30:34.309Z,13.80
2023-02-25T06:33:05.392Z,15.90
2023-02-25T06:35:36.785Z,17.60
2023-02-25T06:38:08.053Z,15.80
2023-02-25T06:40:39.210Z,15.60
2023-02-25T06:43:10.472Z,18.00
2023-02-25T06:45:41.276Z,17.60
2023-02-25T06:48:12.789Z,18.50
2023-02-25T06:50:43.484Z,17.90
2023-02-25T06:53:14.695Z,20.40
2023-02-25T06:55:45.317Z,16.80
2023-02-25T06:58:18.132Z,16.20
2023-02-25T07:00:48.741Z,14.20
2023-02-25T07:03:19.870Z,16.60
2023-02-25T07:05:51.061Z,16.60
2023-02-25T07:08:22.223Z,16.20
2023-02-25T07:10:53.297Z,14.70
2023-02-25T07:13:24.680Z,15.30
2023-02-25T07:15:55.261Z,15.80
2023-02-25T07:18:26.608Z,17.40
2023-02-25T07:20:58.698Z,14.70
2023-02-25T07:23:30.569Z,14.00
2023-02-25T07:26:03.123Z,13.10
2023-02-25T07:28:34.377Z,12.80
2023-02-25T07:31:06.322Z,14.80
2023-02-25T07:33:37.618Z,14.20
2023-02-25T07:36:08.841Z,13.40
2023-02-25T07:38:41.517Z,16.10
2023-02-25T07:41:12.782Z,16.50
2023-02-25T07:43:44.224Z,12.40
2023-02-25T07:46:16.737Z,12.80
2023-02-25T07:48:48.225Z,16.30
2023-02-25T07:51:21.463Z,11.60
2023-02-25T07:56:22.780Z,9.70
2023-02-25T07:58:53.723Z,10.50
2023-02-25T08:01:26.099Z,11.20
2023-02-25T08:03:58.034Z,7.10
2023-02-25T08:06:28.674Z,7.10
2023-02-25T08:08:59.569Z,8.20
2023-02-25T08:11:30.357Z,9.40
2023-02-25T08:14:02.387Z,7.60
2023-02-25T08:16:33.793Z,7.00
2023-02-25T08:19:05.387Z,7.40
2023-02-25T08:21:37.295Z,4.90
2023-02-25T08:24:09.227Z,5.40
2023-02-25T08:26:41.221Z,5.60
2023-02-25T08:29:12.324Z,5.20
2023-02-25T08:31:43.551Z,7.10
2023-02-25T08:34:14.841Z,6.90
2023-02-25T08:36:45.724Z,6.90
2023-02-25T08:39:17.391Z,7.10
2023-02-25T08:41:48.579Z,7.00
2023-02-25T08:44:20.394Z,6.40
2023-02-25T08:46:51.853Z,6.70
2023-02-25T08:49:24.206Z,6.40
2023-02-25T08:51:55.037Z,5.90
2023-02-25T08:54:26.390Z,5.20
2023-02-25T08:56:57.478Z,4.80
2023-02-25T08:59:28.529Z,7.20
2023-02-25T09:01:59.247Z,7.70
2023-02-25T09:04:30.386Z,6.60
2023-02-25T09:07:01.232Z,5.50
2023-02-25T09:09:32.429Z,5.70
2023-02-25T09:12:05.319Z,5.70
2023-02-25T09:14:36.808Z,5.50
2023-02-25T09:17:08.952Z,4.70
2023-02-25T09:19:40.261Z,6.10
2023-02-25T09:22:11.568Z,5.90
2023-02-25T09:24:43.013Z,7.30
2023-02-25T09:27:13.890Z,5.80
2023-02-25T09:29:45.215Z,6.10
2023-02-25T09:32:18.149Z,5.40
2023-02-25T09:34:49.629Z,5.60
2023-02-25T09:37:21.745Z,5.10
2023-02-25T09:39:52.906Z,4.90
2023-02-25T09:42:24.721Z,5.00
2023-02-25T09:44:58.862Z,4.60
2023-02-25T09:47:32.373Z,5.70
2023-02-25T09:50:06.537Z,5.70
2023-02-25T09:52:40.655Z,7.20
2023-02-25T09:55:18.364Z,5.00
2023-02-25T09:57:54.634Z,5.50
2023-02-25T10:00:26.305Z,6.20
2023-02-25T10:03:00.946Z,5.10
2023-02-25T10:05:36.263Z,6.10
2023-02-25T10:08:10.418Z,6.70
2023-02-25T10:10:47.439Z,5.40
2023-02-25T10:13:23.888Z,5.90
2023-02-25T10:15:58.930Z,4.10
2023-02-25T10:18:35.416Z,6.60
2023-02-25T10:21:10.703Z,5.70
2023-02-25T10:23:49.378Z,4.40
2023-02-25T10:26:21.443Z,5.50
2023-02-25T10:28:55.175Z,4.50
2023-02-25T10:31:28.081Z,5.50
2023-02-25T10:33:59.716Z,4.60
2023-02-25T10:36:33.067Z,7.10
2023-02-25T10:39:04.687Z,5.40
2023-02-25T10:41:37.028Z,6.10
2023-02-25T10:44:08.016Z,4.80
2023-02-25T10:46:48.675Z,6.00
2023-02-25T10:49:26.091Z,5.00
2023-02-25T10:52:03.227Z,5.60
2023-02-25T10:54:35.108Z,4.00
2023-02-25T10:57:10.671Z,4.00
2023-02-25T10:59:43.461Z,4.60
2023-02-25T11:02:23.732Z,3.20
2023-02-25T11:04:54.982Z,4.30
2023-02-25T11:07:30.016Z,4.30
2023-02-25T11:10:16.634Z,4.50
2023-02-25T11:12:49.340Z,4.50
2023-02-25T11:15:46.188Z,3.60
2023-02-25T11:18:23.524Z,3.70
2023-02-25T11:20:56.089Z,4.00
2023-02-25T11:23:31.251Z,4.50
2023-02-25T11:26:01.851Z,3.90
2023-02-25T11:28:36.403Z,3.80
2023-02-25T11:31:09.764Z,4.20
2023-02-25T11:33:42.660Z,4.70
2023-02-25T11:36:14.004Z,3.80
2023-02-25T11:38:53.384Z,5.50
2023-02-25T11:41:29.188Z,6.40
2023-02-25T11:44:12.727Z,3.40
2023-02-25T11:46:45.482Z,4.70
2023-02-25T11:49:20.040Z,4.60
2023-02-25T11:51:54.905Z,3.90
2023-02-25T11:54:31.759Z,4.50
2023-02-25T11:57:09.206Z,4.40
2023-02-25T11:59:47.581Z,5.50
2023-02-25T12:02:25.081Z,4.30
2023-02-25T12:05:00.299Z,4.40
2023-02-25T12:07:59.970Z,4.50
2023-02-25T12:11:01.469Z,4.60
2023-02-25T12:13:46.653Z,5.00
2023-02-25T12:16:40.948Z,4.30
2023-02-25T12:19:32.491Z,5.10
2023-02-25T12:22:27.635Z,5.00
2023-02-25T12:25:07.458Z,5.00
2023-02-25T12:28:00.862Z,4.80
2023-02-25T12:30:50.339Z,5.80
2023-02-25T12:33:32.101Z,3.70
2023-02-25T12:36:09.613Z,5.30
2023-02-25T12:39:00.411Z,3.10
2023-02-25T12:41:41.048Z,3.20
2023-02-25T12:44:32.369Z,2.10
2023-02-25T12:47:07.230Z,2.40
2023-02-25T12:50:01.047Z,3.20
2023-02-25T12:52:39.063Z,3.90
2023-02-25T12:55:19.037Z,3.90
2023-02-25T12:57:53.134Z,6.10
2023-02-25T13:00:40.482Z,6.00
2023-02-25T13:03:26.022Z,4.20
2023-02-25T13:06:01.713Z,5.30
2023-02-25T13:08:46.159Z,3.40
2023-02-25T13:11:22.737Z,3.70
2023-02-25T13:14:02.341Z,4.10
2023-02-25T13:16:38.470Z,5.00
2023-02-25T13:19:16.955Z,5.90
2023-02-25T13:21:59.826Z,4.80
2023-02-25T13:24:39.717Z,5.70
2023-02-25T13:27:30.886Z,6.50
2023-02-25T13:30:12.357Z,6.80
2023-02-25T13:32:48.554Z,6.20
2023-02-25T13:35:23.509Z,6.70
2023-02-25T13:38:02.290Z,5.00
2023-02-25T13:40:44.292Z,4.80
2023-02-25T13:43:31.518Z,5.20
2023-02-25T13:46:07.444Z,5.40
2023-02-25T13:48:49.930Z,5.20
2023-02-25T13:51:43.438Z,5.10
2023-02-25T13:54:28.955Z,4.90
2023-02-25T13:57:05.896Z,4.00
2023-02-25T13:59:52.457Z,5.10
2023-02-25T14:02:43.000Z,6.40
2023-02-25T14:05:27.307Z,5.90
2023-02-25T14:08:09.429Z,5.50
2023-02-25T14:10:46.526Z,6.00
2023-02-25T14:13:25.757Z,7.60
2023-02-25T14:16:00.352Z,7.40
2023-02-25T14:18:48.587Z,6.10
2023-02-25T14:21:35.648Z,6.20
2023-02-25T14:24:10.519Z,4.90
2023-02-25T14:26:45.614Z,4.70
2023-02-25T14:29:22.150Z,4.30
2023-02-25T14:32:11.843Z,5.70
2023-02-25T14:34:51.749Z,7.50
2023-02-25T14:37:32.988Z,4.90
2023-02-25T14:40:22.617Z,5.30
2023-02-25T14:43:01.856Z,5.90
2023-02-25T14:45:36.745Z,6.00
2023-02-25T14:48:12.126Z,6.10
2023-02-25T14:50:45.281Z,4.80
2023-02-25T14:53:28.708Z,6.00
2023-02-25T14:56:08.996Z,5.40
2023-02-25T14:58:53.561Z,6.10
2023-02-25T15:01:41.155Z,6.70
2023-02-25T15:04:28.855Z,7.70
2023-02-25T15:07:08.281Z,6.10
2023-02-25T15:09:49.468Z,6.70
2023-02-25T15:12:28.934Z,6.50
2023-02-25T15:15:10.044Z,7.20
2023-02-25T15:18:18.608Z,6.70
2023-02-25T15:20:49.778Z,5.60
2023-02-25T15:23:21.694Z,5.60
2023-02-25T15:25:55.749Z,6.30
2023-02-25T15:28:42.734Z,4.30
2023-02-25T15:31:39.250Z,5.90
2023-02-25T15:34:42.192Z,5.60
2023-02-25T15:37:19.809Z,5.20
2023-02-25T15:39:53.291Z,5.00
2023-02-25T15:42:56.245Z,5.90
2023-02-25T15:45:44.072Z,6.00
2023-02-25T15:48:33.319Z,5.30
2023-02-25T15:51:06.531Z,5.20
2023-02-25T15:56:39.140Z,6.10
2023-02-25T15:59:09.761Z,5.60
2023-02-25T16:01:46.989Z,7.80
2023-02-25T16:04:35.977Z,5.20
2023-02-25T16:07:09.197Z,5.80
2023-02-25T16:09:41.614Z,6.70
2023-02-25T16:12:15.263Z,5.80
2023-02-25T16:17:21.067Z,6.50
2023-02-25T16:19:55.386Z,7.10
2023-02-25T16:22:27.788Z,6.70
2023-02-25T16:25:06.287Z,7.40
2023-02-25T16:27:51.443Z,5.80
2023-02-25T16:30:29.423Z,6.90
2023-02-25T16:33:10.311Z,7.60
2023-02-25T16:35:43.073Z,7.70
2023-02-25T16:38:20.614Z,7.40
2023-02-25T16:40:56.107Z,7.10
2023-02-25T16:43:29.096Z,7.30
2023-02-25T16:46:01.505Z,8.50
2023-02-25T16:48:34.376Z,8.00
2023-02-25T16:51:10.650Z,8.60
2023-02-25T16:53:44.330Z,6.10
2023-02-25T16:56:20.233Z,7.90
2023-02-25T16:59:02.735Z,7.40
2023-02-25T17:01:39.953Z,6.10
2023-02-25T17:04:20.224Z,7.10
2023-02-25T17:07:04.376Z,5.50
2023-02-25T17:09:40.145Z,6.60
2023-02-25T17:12:15.542Z,8.70
2023-02-25T17:14:47.528Z,7.20
2023-02-25T17:17:30.045Z,7.30
2023-02-25T17:20:02.514Z,6.60
2023-02-25T17:22:33.736Z,7.20
2023-02-25T17:25:06.748Z,7.70
2023-02-25T17:27:42.788Z,7.90
2023-02-25T17:30:27.592Z,7.10
2023-02-25T17:32:59.315Z,6.50
2023-02-25T17:35:35.930Z,6.60
2023-02-25T17:38:07.131Z,7.00
2023-02-25T17:40:42.175Z,7.80
2023-02-25T17:43:23.657Z,7.90
2023-02-25T17:45:59.521Z,7.90
2023-02-25T17:48:31.684Z,8.30
2023-02-25T17:51:06.413Z,8.30
2023-02-25T17:53:43.056Z,6.50
2023-02-25T17:56:17.398Z,9.20
2023-02-25T17:58:49.339Z,8.70
2023-02-25T18:01:24.968Z,8.70
2023-02-25T18:04:06.604Z,9.30
2023-02-25T18:06:43.198Z,8.10
2023-02-25T18:09:34.749Z,9.40
2023-02-25T18:12:11.875Z,7.90
2023-02-25T18:14:45.970Z,7.50
2023-02-25T18:17:22.431Z,7.20
2023-02-25T18:19:55.566Z,8.70
2023-02-25T18:22:32.245Z,9.20
2023-02-25T18:25:08.363Z,9.30
2023-02-25T18:27:44.118Z,10.60
2023-02-25T18:30:20.632Z,11.20
2023-02-25T18:32:57.772Z,10.00
2023-02-25T18:35:34.024Z,9.40
2023-02-25T18:38:13.663Z,9.10
2023-02-25T18:40:44.603Z,10.60
2023-02-25T18:43:16.770Z,10.80
2023-02-25T18:45:53.356Z,9.40
2023-02-25T18:48:24.790Z,11.30
2023-02-25T18:51:06.519Z,11.20
2023-02-25T18:53:47.118Z,10.90
2023-02-25T18:56:18.313Z,12.70
2023-02-25T18:58:49.732Z,10.50
2023-02-25T19:01:24.508Z,10.10
2023-02-25T19:04:00.110Z,12.50
2023-02-25T19:06:36.771Z,13.40
2023-02-25T19:09:07.924Z,10.00
2023-02-25T19:11:43.518Z,12.60
2023-02-25T19:14:25.558Z,11.70
2023-02-25T19:17:05.594Z,11.10
2023-02-25T19:19:46.964Z,11.60
2023-02-25T19:22:18.015Z,11.30
2023-02-25T19:24:49.880Z,10.30
2023-02-25T19:27:26.694Z,12.00
2023-02-25T19:30:03.377Z,11.20
2023-02-25T19:32:38.095Z,9.60
2023-02-25T19:35:10.807Z,15.40
2023-02-25T19:37:43.854Z,10.40
2023-02-25T19:40:20.316Z,11.40
2023-02-25T19:42:51.177Z,10.20
2023-02-25T19:45:23.584Z,9.30
2023-02-25T19:47:54.875Z,9.00
2023-02-25T19:50:31.304Z,9.10
2023-02-25T19:53:04.369Z,9.10
2023-02-25T19:55:36.284Z,7.40
2023-02-25T19:58:07.021Z,9.70
2023-02-25T20:00:38.858Z,7.80
2023-02-25T20:03:10.594Z,10.10
2023-02-25T20:05:41.878Z,10.00
2023-02-25T20:08:13.232Z,10.50
2023-02-25T20:10:44.892Z,9.70
2023-02-25T20:13:15.982Z,9.00
2023-02-25T20:15:50.821Z,8.80
2023-02-25T20:18:27.034Z,10.80
2023-02-25T20:21:04.461Z,9.60
2023-02-25T20:23:40.265Z,11.30
2023-02-25T20:26:12.841Z,11.00
2023-02-25T20:28:53.938Z,12.20
2023-02-25T20:31:29.579Z,11.30
2023-02-25T20:34:01.524Z,11.70
2023-02-25T20:36:33.353Z,12.40
2023-02-25T20:39:16.739Z,14.80
2023-02-25T20:41:48.300Z,13.20
2023-02-25T20:44:19.258Z,10.90
2023-02-25T20:46:50.706Z,12.90
2023-02-25T20:49:21.448Z,13.50
2023-02-25T20:51:58.081Z,12.60
2023-02-25T20:54:29.259Z,13.50
2023-02-25T20:57:10.680Z,12.70
2023-02-25T20:59:50.910Z,14.10
2023-02-25T21:02:26.832Z,11.90
2023-02-25T21:04:58.085Z,17.70
2023-02-25T21:07:32.722Z,13.50
2023-02-25T21:10:10.892Z,14.30
2023-02-25T21:12:41.914Z,13.00
2023-02-25T21:15:18.121Z,14.70
2023-02-25T21:17:53.015Z,11.40
2023-02-25T21:20:24.492Z,17.60
2023-02-25T21:22:55.260Z,14.30
2023-02-25T21:25:26.258Z,14.20
2023-02-25T21:27:56.980Z,10.80
2023-02-25T21:30:28.044Z,14.20
2023-02-25T21:32:59.085Z,13.30
2023-02-25T21:35:30.051Z,13.90
2023-02-25T21:38:04.742Z,14.50
2023-02-25T21:40:36.799Z,16.20
2023-02-25T21:43:07.306Z,16.90
2023-02-25T21:45:44.147Z,16.40
2023-02-25T21:48:15.274Z,14.40
2023-02-25T21:50:50.192Z,13.70
2023-02-25T21:53:21.821Z,13.50
2023-02-25T21:55:53.084Z,14.80
2023-02-25T21:58:24.034Z,15.60
2023-02-25T22:00:54.948Z,15.40
2023-02-25T22:03:25.853Z,13.30
2023-02-25T22:05:56.901Z,14.60
2023-02-25T22:08:27.569Z,17.10
2023-02-25T22:10:58.633Z,17.20
2023-02-25T22:13:32.892Z,14.70
2023-02-25T22:16:05.215Z,12.60
2023-02-25T22:18:36.416Z,14.90
2023-02-25T22:21:09.615Z,18.70
2023-02-25T22:23:40.816Z,17.00
2023-02-25T22:26:12.996Z,14.60
2023-02-25T22:28:44.519Z,17.30
2023-02-25T22:31:16.927Z,15.80
2023-02-25T22:33:50.952Z,14.90
2023-02-25T22:36:21.864Z,17.70
2023-02-25T22:38:52.518Z,16.20
2023-02-25T22:41:24.505Z,17.70
2023-02-25T22:43:55.407Z,20.10
2023-02-25T22:46:27.988Z,18.20
2023-02-25T22:48:59.024Z,15.50
2023-02-25T22:51:31.375Z,16.00
2023-02-25T22:54:04.909Z,14.60
2023-02-25T22:56:35.739Z,15.50
2023-02-25T22:59:10.232Z,17.60
2023-02-25T23:03:28.662Z,14.90
2023-02-25T23:06:01.962Z,17.40
2023-02-25T23:08:34.378Z,16.00
2023-02-25T23:11:15.519Z,17.60
2023-02-25T23:13:47.665Z,17.00
2023-02-25T23:16:19.706Z,14.40
2023-02-25T23:18:52.395Z,15.30
2023-02-25T23:21:23.328Z,20.40
2023-02-25T23:23:55.995Z,15.80
2023-02-25T23:26:28.015Z,16.10
2023-02-25T23:28:59.901Z,18.10
2023-02-25T23:31:31.887Z,18.40
2023-02-25T23:34:04.846Z,14.90
2023-02-25T23:36:36.367Z,16.30
2023-02-25T23:39:07.702Z,16.00
2023-02-25T23:41:40.134Z,17.40
2023-02-25T23:44:12.335Z,18.60
2023-02-25T23:46:45.359Z,14.20
2023-02-25T23:49:18.776Z,17.40
2023-02-25T23:51:50.115Z,14.30
2023-02-25T23:54:21.568Z,19.10
2023-02-25T23:56:53.256Z,15.60
2023-02-25T23:59:27.806Z,14.10
